createdAt,value
2023-02-22T00:02:48.404Z,104404.25
2023-02-22T00:07:51.632Z,104392.81
2023-02-22T00:12:56.339Z,104373.53
2023-02-22T00:18:00.555Z,104364.38
2023-02-22T00:23:07.087Z,104304.47
2023-02-22T00:28:09.840Z,104316.06
2023-02-22T00:33:14.744Z,104344.16
2023-02-22T00:38:19.356Z,104361.41
2023-02-22T00:43:22.191Z,104363.69
2023-02-22T00:48:26.541Z,104400.75
2023-02-22T00:53:29.274Z,104425.13
2023-02-22T00:58:32.144Z,104469.16
2023-02-22T01:03:39.574Z,104482.47
2023-02-22T01:08:45.514Z,104582.53
2023-02-22T01:13:48.786Z,104650.41
2023-02-22T01:18:53.095Z,104866.69
2023-02-22T01:23:56.881Z,104998.19
2023-02-22T01:28:59.616Z,105187.75
2023-02-22T01:34:04.073Z,105234.09
2023-02-22T01:39:07.328Z,105296.88
2023-02-22T01:44:26.157Z,105552.16
2023-02-22T01:49:34.635Z,105656.13
2023-02-22T01:54:40.212Z,105426.25
2023-02-22T01:59:52.813Z,105556.69
2023-02-22T02:04:59.295Z,105491.94
2023-02-22T02:10:04.676Z,105474.72
2023-02-22T02:15:22.402Z,105278.44
2023-02-22T02:20:30.934Z,105241.31
2023-02-22T02:25:54.160Z,105000.09
2023-02-22T02:31:38.672Z,104977.25
2023-02-22T02:36:48.322Z,104999.47
2023-02-22T02:41:52.927Z,104944.00
2023-02-22T02:46:59.263Z,104787.41
2023-02-22T02:52:04.680Z,104723.03
2023-02-22T02:57:09.349Z,104667.47
2023-02-22T03:02:23.727Z,104572.41
2023-02-22T03:07:38.844Z,104446.47
2023-02-22T03:12:46.779Z,104295.28
2023-02-22T03:17:55.391Z,104141.38
2023-02-22T03:23:03.530Z,103993.00
2023-02-22T03:28:11.462Z,103553.69
2023-02-22T03:33:20.307Z,103465.56
2023-02-22T03:38:26.679Z,103393.53
2023-02-22T03:43:33.096Z,103336.50
2023-02-22T03:48:44.682Z,103256.63
2023-02-22T03:53:48.983Z,103144.63
2023-02-22T03:58:53.133Z,103024.75
2023-02-22T04:03:55.855Z,102979.56
2023-02-22T04:09:00.131Z,102959.59
2023-02-22T04:14:03.247Z,102856.34
2023-02-22T04:19:06.226Z,102787.00
2023-02-22T04:24:13.083Z,102737.22
2023-02-22T04:29:18.206Z,102642.69
2023-02-22T04:34:21.476Z,102636.13
2023-02-22T04:39:26.602Z,102525.22
2023-02-22T04:44:30.096Z,102511.38
2023-02-22T04:49:33.628Z,102459.53
2023-02-22T04:54:38.968Z,102375.13
2023-02-22T04:59:42.617Z,102370.94
2023-02-22T05:04:47.859Z,102348.69
2023-02-22T05:09:52.001Z,102309.88
2023-02-22T05:14:54.862Z,102248.06
2023-02-22T05:19:57.592Z,102210.78
2023-02-22T05:25:01.774Z,102139.72
2023-02-22T05:30:05.117Z,102092.25
2023-02-22T05:35:08.391Z,102047.50
2023-02-22T05:40:14.374Z,102059.59
2023-02-22T05:45:18.870Z,102030.81
2023-02-22T05:50:22.412Z,102004.25
2023-02-22T05:55:27.942Z,101965.13
2023-02-22T06:00:32.734Z,101954.97
2023-02-22T06:05:36.364Z,101933.03
2023-02-22T06:10:40.911Z,101948.91
2023-02-22T06:15:43.724Z,101925.28
2023-02-22T06:20:46.491Z,101918.84
2023-02-22T06:25:50.655Z,101894.34
2023-02-22T06:30:53.449Z,101908.78
2023-02-22T06:35:56.223Z,101859.94
2023-02-22T06:41:00.293Z,101876.94
2023-02-22T06:46:03.241Z,101896.06
2023-02-22T06:51:08.209Z,101900.91
2023-02-22T06:56:12.246Z,101902.25
2023-02-22T07:01:15.234Z,101895.13
2023-02-22T07:06:18.816Z,101903.94
2023-02-22T07:11:24.324Z,101934.34
2023-02-22T07:16:27.056Z,101943.72
2023-02-22T07:21:30.793Z,101956.03
2023-02-22T07:26:40.052Z,101976.06
2023-02-22T07:31:42.743Z,101984.47
2023-02-22T07:36:45.493Z,102009.88
2023-02-22T07:41:49.785Z,102032.16
2023-02-22T07:46:59.416Z,102069.13
2023-02-22T07:52:02.249Z,102209.81
2023-02-22T07:57:06.417Z,102540.50
2023-02-22T08:02:16.619Z,102628.34
2023-02-22T08:07:19.405Z,102500.50
2023-02-22T08:12:24.086Z,102446.94
2023-02-22T08:17:26.801Z,102590.88
2023-02-22T08:22:29.923Z,102677.72
2023-02-22T08:27:34.317Z,102666.34
2023-02-22T08:32:37.124Z,102605.81
2023-02-22T08:37:43.513Z,102540.78
2023-02-22T08:42:47.704Z,102625.56
2023-02-22T08:47:51.055Z,102616.63
2023-02-22T08:52:53.859Z,102611.53
2023-02-22T08:57:57.921Z,102575.56
2023-02-22T09:03:00.947Z,102486.00
2023-02-22T09:08:04.271Z,102482.53
2023-02-22T09:13:08.331Z,102495.53
2023-02-22T09:18:14.384Z,102499.53
2023-02-22T09:23:17.041Z,102209.25
2023-02-22T09:28:21.125Z,102099.09
2023-02-22T09:33:26.013Z,102062.91
2023-02-22T09:38:30.071Z,102031.53
2023-02-22T09:43:40.531Z,102059.09
2023-02-22T09:48:52.966Z,102014.44
2023-02-22T09:53:58.929Z,102080.44
2023-02-22T09:59:04.962Z,102135.56
2023-02-22T10:04:12.625Z,102154.13
2023-02-22T10:09:15.686Z,102171.50
2023-02-22T10:14:43.561Z,102116.59
2023-02-22T10:19:55.100Z,102162.91
2023-02-22T10:25:01.157Z,102096.50
2023-02-22T10:30:22.362Z,102056.78
2023-02-22T10:35:28.802Z,102057.53
2023-02-22T10:40:34.568Z,101995.97
2023-02-22T10:45:38.882Z,102263.03
2023-02-22T10:50:43.438Z,102219.22
2023-02-22T10:56:07.690Z,102165.81
2023-02-22T11:01:21.592Z,102145.97
2023-02-22T11:06:24.335Z,102101.19
2023-02-22T11:11:29.160Z,101969.03
2023-02-22T11:16:34.609Z,101950.09
2023-02-22T11:21:37.471Z,101881.88
2023-02-22T11:26:43.721Z,101862.69
2023-02-22T11:31:49.177Z,101874.25
2023-02-22T11:36:51.956Z,101836.19
2023-02-22T11:41:56.861Z,101899.91
2023-02-22T11:47:06.826Z,101828.19
2023-02-22T11:52:23.017Z,101828.31
2023-02-22T11:57:46.572Z,101821.00
2023-02-22T12:03:00.913Z,101724.72
2023-02-22T12:08:19.989Z,101646.16
2023-02-22T12:13:32.985Z,101534.78
2023-02-22T12:18:40.887Z,101440.47
2023-02-22T12:23:47.087Z,101345.72
2023-02-22T12:28:59.259Z,101220.84
2023-02-22T12:34:09.430Z,101097.19
2023-02-22T12:39:51.762Z,100986.19
2023-02-22T12:44:59.724Z,100909.75
2023-02-22T12:50:08.362Z,100791.34
2023-02-22T12:55:13.882Z,100668.22
2023-02-22T13:00:20.210Z,100597.78
2023-02-22T13:05:24.114Z,100556.44
2023-02-22T13:10:52.698Z,100518.44
2023-02-22T13:15:59.835Z,100466.97
2023-02-22T13:21:07.871Z,100413.50
2023-02-22T13:26:16.053Z,100367.22
2023-02-22T13:31:35.996Z,100331.34
2023-02-22T13:36:52.495Z,100288.94
2023-02-22T13:42:15.134Z,100271.31
2023-02-22T13:47:38.139Z,100256.97
2023-02-22T13:52:42.675Z,100255.88
2023-02-22T13:57:48.709Z,100264.38
2023-02-22T14:03:01.280Z,100246.63
2023-02-22T14:08:05.690Z,100256.28
2023-02-22T14:13:08.862Z,100222.31
2023-02-22T14:18:17.581Z,100201.34
2023-02-22T14:23:30.867Z,100193.81
2023-02-22T14:28:38.826Z,100180.78
2023-02-22T14:34:10.595Z,100150.66
2023-02-22T14:39:20.882Z,100138.97
2023-02-22T14:44:30.381Z,100136.44
2023-02-22T14:49:37.995Z,100112.44
2023-02-22T14:54:52.096Z,100103.63
2023-02-22T15:00:09.039Z,100098.22
2023-02-22T15:05:14.222Z,100102.88
2023-02-22T15:10:22.056Z,100093.94
2023-02-22T15:15:27.442Z,100110.44
2023-02-22T15:20:30.413Z,100098.16
2023-02-22T15:25:37.544Z,100084.50
2023-02-22T15:30:40.433Z,100088.50
2023-02-22T15:35:43.484Z,100101.81
2023-02-22T15:40:50.667Z,100104.06
2023-02-22T15:45:53.561Z,100114.59
2023-02-22T15:51:06.799Z,100119.47
2023-02-22T15:56:14.825Z,100131.44
2023-02-22T16:01:19.641Z,100129.38
2023-02-22T16:06:29.525Z,100135.31
2023-02-22T16:11:38.373Z,100141.13
2023-02-22T16:16:43.149Z,100150.31
2023-02-22T16:21:54.434Z,100165.66
2023-02-22T16:27:07.892Z,100180.16
2023-02-22T16:32:11.508Z,100183.69
2023-02-22T16:37:23.176Z,100179.63
2023-02-22T16:42:27.221Z,100182.88
2023-02-22T16:47:29.917Z,100183.53
2023-02-22T16:52:32.641Z,100193.75
2023-02-22T16:57:38.166Z,100200.28
2023-02-22T17:02:41.143Z,100212.94
2023-02-22T17:07:44.050Z,100222.22
2023-02-22T17:12:49.709Z,100233.19
2023-02-22T17:17:54.109Z,100252.31
2023-02-22T17:22:58.788Z,100264.47
2023-02-22T17:28:02.917Z,100274.63
2023-02-22T17:33:07.671Z,100291.19
2023-02-22T17:38:10.926Z,100307.72
2023-02-22T17:43:16.788Z,100311.13
2023-02-22T17:48:20.165Z,100322.00
2023-02-22T17:53:25.315Z,100338.59
2023-02-22T17:58:30.884Z,100353.59
2023-02-22T18:03:39.381Z,100359.72
2023-02-22T18:08:42.115Z,100374.44
2023-02-22T18:13:46.217Z,100388.66
2023-02-22T18:18:49.635Z,100386.66
2023-02-22T18:23:52.665Z,100396.00
2023-02-22T18:28:56.777Z,100412.84
2023-02-22T18:33:59.418Z,100412.91
2023-02-22T18:39:03.184Z,100414.03
2023-02-22T18:44:10.342Z,100421.53
2023-02-22T18:49:14.156Z,100428.22
2023-02-22T18:54:16.896Z,100427.19
2023-02-22T18:59:20.937Z,100436.66
2023-02-22T19:04:25.049Z,100424.75
2023-02-22T19:09:27.879Z,100416.63
2023-02-22T19:14:31.976Z,100423.59
2023-02-22T19:19:34.940Z,100412.63
2023-02-22T19:24:39.785Z,100417.06
2023-02-22T19:29:43.832Z,100418.44
2023-02-22T19:34:46.966Z,100419.75
2023-02-22T19:39:49.730Z,100422.00
2023-02-22T19:44:54.283Z,100435.84
2023-02-22T19:49:59.638Z,100436.25
2023-02-22T19:55:03.308Z,100438.75
2023-02-22T20:00:11.382Z,100441.47
2023-02-22T20:05:16.413Z,100456.22
2023-02-22T20:10:19.669Z,100462.44
2023-02-22T20:15:24.052Z,100466.88
2023-02-22T20:20:28.411Z,100480.66
2023-02-22T20:25:32.357Z,100485.06
2023-02-22T20:30:37.815Z,100495.25
2023-02-22T20:35:40.927Z,100505.53
2023-02-22T20:40:44.248Z,100506.75
2023-02-22T20:45:48.460Z,100500.63
2023-02-22T20:50:51.202Z,100513.13
2023-02-22T20:55:55.656Z,100522.56
2023-02-22T21:01:05.740Z,100520.25
2023-02-22T21:06:09.880Z,100524.94
2023-02-22T21:11:13.959Z,100524.25
2023-02-22T21:16:19.772Z,100535.31
2023-02-22T21:21:23.257Z,100532.53
2023-02-22T21:26:28.758Z,100522.22
2023-02-22T21:31:34.454Z,100542.06
2023-02-22T21:36:38.830Z,100546.56
2023-02-22T21:41:41.634Z,100548.72
2023-02-22T21:46:48.649Z,100591.03
2023-02-22T21:51:52.603Z,100602.22
2023-02-22T21:56:55.394Z,100609.44
2023-02-22T22:01:59.504Z,100627.38
2023-02-22T22:07:03.846Z,100641.09
2023-02-22T22:12:10.106Z,100643.94
2023-02-22T22:17:14.020Z,100657.22
2023-02-22T22:22:16.775Z,100676.63
2023-02-22T22:27:19.594Z,100693.53
2023-02-22T22:32:24.423Z,100715.69
2023-02-22T22:37:27.920Z,100749.03
2023-02-22T22:42:30.666Z,100760.97
2023-02-22T22:47:36.975Z,100786.16
2023-02-22T22:52:39.522Z,100785.38
2023-02-22T22:57:42.934Z,100811.25
2023-02-22T23:02:48.564Z,100834.16
2023-02-22T23:07:51.655Z,100862.56
2023-02-22T23:12:55.204Z,100884.31
2023-02-22T23:17:59.289Z,100947.69
2023-02-22T23:23:02.712Z,100965.38
2023-02-22T23:28:14.502Z,100979.66
2023-02-22T23:33:18.614Z,101018.06
2023-02-22T23:38:21.324Z,101041.72
2023-02-22T23:43:25.468Z,101075.63
2023-02-22T23:48:30.478Z,101092.41
2023-02-22T23:53:33.332Z,101117.03
2023-02-22T23:58:36.039Z,101122.72
